createdAt,value
2018-09-22T00:01:25.906Z,97713.83
2018-09-22T00:06:23.086Z,97725.27
2018-09-22T00:11:19.778Z,97730.06
2018-09-22T00:16:14.712Z,97712.89
2018-09-22T00:21:09.709Z,97715.38
2018-09-22T00:26:04.683Z,97725.52
2018-09-22T00:30:59.609Z,97728.19
2018-09-22T00:35:54.554Z,97735.38
2018-09-22T00:40:49.625Z,97718.96
2018-09-22T00:45:44.606Z,97729.88
2018-09-22T00:50:39.582Z,97743.06
2018-09-22T00:55:34.787Z,97734.50
2018-09-22T01:00:29.750Z,97725.31
2018-09-22T01:05:24.905Z,97737.67
2018-09-22T01:10:19.897Z,97734.42
2018-09-22T01:15:14.793Z,97748.36
2018-09-22T01:20:09.843Z,97741.41
2018-09-22T01:25:04.773Z,97729.16
2018-09-22T01:29:59.749Z,97730.96
2018-09-22T01:34:54.681Z,97748.49
2018-09-22T01:39:49.579Z,97766.74
2018-09-22T01:44:44.525Z,97776.11
2018-09-22T01:49:39.457Z,97783.54
2018-09-22T01:54:34.453Z,97784.86
2018-09-22T01:59:29.450Z,97780.48
2018-09-22T02:04:24.384Z,97776.95
2018-09-22T02:09:19.397Z,97776.09
2018-09-22T02:14:14.297Z,97782.39
2018-09-22T02:19:09.257Z,97790.80
2018-09-22T02:24:04.772Z,97800.59
2018-09-22T02:29:00.048Z,97804.31
2018-09-22T02:34:01.674Z,97795.91
2018-09-22T02:38:56.663Z,97799.93
2018-09-22T02:43:51.581Z,97789.39
2018-09-22T02:48:46.493Z,97782.17
2018-09-22T02:53:41.463Z,97786.75
2018-09-22T02:58:36.422Z,97797.45
2018-09-22T03:03:31.327Z,97780.83
2018-09-22T03:08:26.222Z,97783.81
2018-09-22T03:13:21.166Z,97760.31
2018-09-22T03:18:16.058Z,97751.92
2018-09-22T03:23:10.961Z,97771.66
2018-09-22T03:28:05.904Z,97778.30
2018-09-22T03:33:00.853Z,97783.77
2018-09-22T03:37:55.826Z,97786.45
2018-09-22T03:42:50.705Z,97802.00
2018-09-22T03:47:45.683Z,97787.69
2018-09-22T03:52:40.623Z,97789.57
2018-09-22T03:57:35.625Z,97780.80
2018-09-22T04:02:30.638Z,97792.20
2018-09-22T04:07:25.567Z,97790.27
2018-09-22T04:12:20.545Z,97785.05
2018-09-22T04:17:15.470Z,97780.45
2018-09-22T04:22:10.414Z,97778.11
2018-09-22T04:27:05.305Z,97795.59
2018-09-22T04:32:00.294Z,97841.38
2018-09-22T04:36:55.950Z,97827.28
2018-09-22T04:41:50.943Z,97814.48
2018-09-22T04:46:45.858Z,97828.31
2018-09-22T04:51:40.782Z,97816.00
2018-09-22T04:56:35.704Z,97807.64
2018-09-22T05:01:30.653Z,97804.27
2018-09-22T05:06:25.644Z,97793.67
2018-09-22T05:11:20.635Z,97790.81
2018-09-22T05:16:15.565Z,97787.02
2018-09-22T05:21:10.588Z,97777.88
2018-09-22T05:26:05.514Z,97778.30
2018-09-22T05:31:00.777Z,97783.95
2018-09-22T05:35:55.789Z,97789.59
2018-09-22T05:40:50.919Z,97800.47
2018-09-22T05:45:45.895Z,97798.31
2018-09-22T05:50:42.883Z,97795.40
2018-09-22T05:55:37.882Z,97778.95
2018-09-22T06:00:37.015Z,97784.73
2018-09-22T06:05:32.014Z,97785.98
2018-09-22T06:10:26.955Z,97785.30
2018-09-22T06:15:21.894Z,97796.39
2018-09-22T06:20:16.925Z,97789.11
2018-09-22T06:25:11.924Z,97788.50
2018-09-22T06:30:06.984Z,97797.74
2018-09-22T06:35:01.942Z,97804.19
2018-09-22T06:39:56.993Z,97794.48
2018-09-22T06:44:52.049Z,97802.42
2018-09-22T06:49:47.055Z,97822.52
2018-09-22T06:54:42.029Z,97827.58
2018-09-22T06:59:36.978Z,97814.85
2018-09-22T07:04:32.019Z,97797.69
2018-09-22T07:09:27.057Z,97786.77
2018-09-22T07:14:22.053Z,97802.87
2018-09-22T07:19:17.127Z,97799.58
2018-09-22T07:24:12.115Z,97820.98
2018-09-22T07:29:07.105Z,97824.01
2018-09-22T07:34:02.014Z,97834.69
2018-09-22T07:38:57.044Z,97841.55
2018-09-22T07:43:51.958Z,97847.73
2018-09-22T07:48:47.042Z,97856.90
2018-09-22T07:53:41.991Z,97836.54
2018-09-22T07:58:36.978Z,97838.74
2018-09-22T08:03:31.937Z,97848.91
2018-09-22T08:08:26.927Z,97850.66
2018-09-22T08:13:21.887Z,97849.14
2018-09-22T08:18:16.938Z,97859.44
2018-09-22T08:23:11.901Z,97856.17
2018-09-22T08:28:06.935Z,97844.16
2018-09-22T08:33:01.945Z,97843.05
2018-09-22T08:37:56.984Z,97848.95
2018-09-22T08:42:51.965Z,97842.51
2018-09-22T08:47:47.031Z,97843.39
2018-09-22T08:52:42.020Z,97847.28
2018-09-22T08:57:36.946Z,97845.84
2018-09-22T09:02:31.967Z,97837.02
2018-09-22T09:07:26.949Z,97831.88
2018-09-22T09:12:21.941Z,97827.17
2018-09-22T09:17:16.974Z,97841.95
2018-09-22T09:22:11.917Z,97843.70
2018-09-22T09:27:06.871Z,97839.41
2018-09-22T09:32:01.884Z,97837.83
2018-09-22T09:36:56.901Z,97821.27
2018-09-22T09:41:51.825Z,97810.92
2018-09-22T09:46:46.770Z,97796.72
2018-09-22T09:51:41.657Z,97778.47
2018-09-22T09:56:36.667Z,97780.47
2018-09-22T10:01:31.660Z,97771.41
2018-09-22T10:06:26.705Z,97779.84
2018-09-22T10:11:21.717Z,97785.00
2018-09-22T10:16:16.743Z,97791.94
2018-09-22T10:21:11.722Z,97784.47
2018-09-22T10:26:06.763Z,97782.80
2018-09-22T10:31:01.811Z,97774.20
2018-09-22T10:35:56.818Z,97769.22
2018-09-22T10:40:51.781Z,97770.28
2018-09-22T10:45:46.780Z,97767.63
2018-09-22T10:50:41.733Z,97754.95
2018-09-22T10:55:36.768Z,97742.86
2018-09-22T11:00:31.690Z,97730.60
2018-09-22T11:05:26.645Z,97724.17
2018-09-22T11:10:22.083Z,97726.44
2018-09-22T11:15:16.986Z,97720.53
2018-09-22T11:20:11.898Z,97707.57
2018-09-22T11:25:07.366Z,97711.98
2018-09-22T11:30:02.300Z,97708.82
2018-09-22T11:34:57.159Z,97704.41
2018-09-22T11:39:52.102Z,97698.70
2018-09-22T11:44:47.008Z,97691.47
2018-09-22T11:49:41.996Z,97677.04
2018-09-22T11:54:36.911Z,97667.41
2018-09-22T11:59:31.910Z,97667.23
2018-09-22T12:04:26.978Z,97655.50
2018-09-22T12:09:21.882Z,97651.05
2018-09-22T12:14:17.048Z,97654.87
2018-09-22T12:19:12.014Z,97650.05
2018-09-22T12:24:07.118Z,97637.24
2018-09-22T12:29:02.055Z,97627.78
2018-09-22T12:33:56.998Z,97622.97
2018-09-22T12:38:51.913Z,97614.19
2018-09-22T12:43:46.862Z,97588.77
2018-09-22T12:48:41.927Z,97572.84
2018-09-22T12:53:36.854Z,97569.13
2018-09-22T12:58:31.742Z,97571.23
2018-09-22T13:03:26.727Z,97581.21
2018-09-22T13:08:21.655Z,97580.67
2018-09-22T13:13:16.642Z,97585.48
2018-09-22T13:18:11.710Z,97584.03
2018-09-22T13:23:07.029Z,97581.30
2018-09-22T13:28:02.097Z,97575.71
2018-09-22T13:32:57.015Z,97563.73
2018-09-22T13:37:51.879Z,97568.86
2018-09-22T13:42:46.833Z,97581.18
2018-09-22T13:47:41.778Z,97564.44
2018-09-22T13:52:36.786Z,97563.01
2018-09-22T13:57:31.700Z,97573.50
2018-09-22T14:02:26.749Z,97569.14
2018-09-22T14:07:21.882Z,97552.33
2018-09-22T14:12:16.899Z,97553.20
2018-09-22T14:17:11.801Z,97534.90
2018-09-22T14:22:06.960Z,97520.97
2018-09-22T14:27:01.980Z,97514.25
2018-09-22T14:31:56.871Z,97523.27
2018-09-22T14:36:51.765Z,97529.96
2018-09-22T14:41:46.637Z,97528.03
2018-09-22T14:46:41.545Z,97531.25
2018-09-22T14:51:36.430Z,97514.20
2018-09-22T14:56:31.396Z,97519.31
2018-09-22T15:01:26.280Z,97507.56
2018-09-22T15:06:21.233Z,97504.38
2018-09-22T15:11:16.205Z,97502.08
2018-09-22T15:16:11.105Z,97498.78
2018-09-22T15:21:06.101Z,97511.00
2018-09-22T15:26:00.958Z,97494.60
2018-09-22T15:30:55.876Z,97480.91
2018-09-22T15:35:50.765Z,97493.95
2018-09-22T15:40:45.746Z,97491.25
2018-09-22T15:45:43.735Z,97490.80
2018-09-22T15:50:38.685Z,97484.45
2018-09-22T15:55:33.586Z,97470.89
2018-09-22T16:00:28.508Z,97462.61
2018-09-22T16:05:23.419Z,97453.72
2018-09-22T16:10:18.327Z,97451.01
2018-09-22T16:15:13.311Z,97459.11
2018-09-22T16:20:08.238Z,97456.33
2018-09-22T16:25:03.187Z,97439.70
2018-09-22T16:29:59.861Z,97427.61
2018-09-22T16:34:54.899Z,97426.90
2018-09-22T16:39:49.882Z,97439.53
2018-09-22T16:44:44.781Z,97429.41
2018-09-22T16:49:39.762Z,97438.30
2018-09-22T16:54:34.638Z,97430.00
2018-09-22T16:59:29.531Z,97422.80
2018-09-22T17:04:24.518Z,97433.95
2018-09-22T17:09:19.485Z,97431.27
2018-09-22T17:14:14.396Z,97420.14
2018-09-22T17:19:09.349Z,97429.17
2018-09-22T17:24:04.691Z,97439.05
2018-09-22T17:28:59.587Z,97444.35
2018-09-22T17:33:54.697Z,97453.12
2018-09-22T17:38:49.661Z,97457.66
2018-09-22T17:43:44.577Z,97463.31
2018-09-22T17:48:39.501Z,97459.91
2018-09-22T17:53:34.609Z,97452.38
2018-09-22T17:58:29.428Z,97448.16
2018-09-22T18:03:24.374Z,97448.25
2018-09-22T18:08:19.309Z,97455.07
2018-09-22T18:13:14.165Z,97458.55
2018-09-22T18:18:09.159Z,97468.59
2018-09-22T18:23:04.245Z,97450.06
2018-09-22T18:27:59.174Z,97469.58
2018-09-22T18:32:54.460Z,97453.05
2018-09-22T18:37:49.361Z,97464.22
2018-09-22T18:42:44.291Z,97453.47
2018-09-22T18:47:39.185Z,97459.73
2018-09-22T18:52:34.171Z,97456.66
2018-09-22T18:57:29.085Z,97458.62
2018-09-22T19:02:23.996Z,97475.03
2018-09-22T19:07:18.945Z,97477.55
2018-09-22T19:12:13.966Z,97481.26
2018-09-22T19:17:19.603Z,97481.81
2018-09-22T19:22:20.273Z,97485.46
2018-09-22T19:28:21.595Z,97477.63
2018-09-22T19:33:21.498Z,97481.38
2018-09-22T19:38:20.152Z,97484.08
2018-09-22T19:43:20.188Z,97501.97
2018-09-22T19:49:18.177Z,97491.19
2018-09-22T19:54:13.234Z,97494.66
2018-09-22T19:59:08.206Z,97495.03
2018-09-22T20:04:03.178Z,97453.48
2018-09-22T20:08:58.096Z,97487.32
2018-09-22T20:13:53.041Z,97477.47
2018-09-22T20:18:48.074Z,97482.33
2018-09-22T20:23:43.074Z,97468.45
2018-09-22T20:28:38.056Z,97465.34
2018-09-22T20:33:32.985Z,97472.24
2018-09-22T20:38:27.877Z,97470.06
2018-09-22T20:43:22.859Z,97468.16
2018-09-22T20:48:17.877Z,97480.63
2018-09-22T20:53:14.753Z,97487.02
2018-09-22T20:58:10.204Z,97476.73
2018-09-22T21:03:05.157Z,97477.70
2018-09-22T21:08:00.161Z,97484.08
2018-09-22T21:12:55.110Z,97501.56
2018-09-22T21:17:50.061Z,97489.52
2018-09-22T21:22:45.080Z,97502.13
2018-09-22T21:27:40.002Z,97506.70
2018-09-22T21:32:35.769Z,97509.83
2018-09-22T21:37:30.754Z,97501.10
2018-09-22T21:42:25.734Z,97504.48
2018-09-22T21:47:20.698Z,97513.75
2018-09-22T21:52:15.618Z,97514.09
2018-09-22T21:57:10.554Z,97529.95
2018-09-22T22:02:05.651Z,97523.16
2018-09-22T22:07:00.587Z,97520.88
2018-09-22T22:12:00.527Z,97531.50
2018-09-22T22:16:55.746Z,97546.48
2018-09-22T22:21:50.673Z,97573.32
2018-09-22T22:26:45.651Z,97580.48
2018-09-22T22:31:40.769Z,97591.19
2018-09-22T22:36:35.835Z,97597.02
2018-09-22T22:41:30.825Z,97586.86
2018-09-22T22:46:25.805Z,97592.84
2018-09-22T22:51:20.889Z,97602.65
2018-09-22T22:56:15.870Z,97575.88
2018-09-22T23:01:10.853Z,97565.28
2018-09-22T23:06:05.991Z,97564.20
2018-09-22T23:11:01.069Z,97571.26
2018-09-22T23:15:56.190Z,97574.04
2018-09-22T23:20:51.283Z,97562.61
2018-09-22T23:25:46.438Z,97557.89
2018-09-22T23:30:41.625Z,97570.75
2018-09-22T23:35:36.921Z,97574.12
2018-09-22T23:40:32.189Z,97579.14
2018-09-22T23:45:27.324Z,97579.16
2018-09-22T23:50:22.414Z,97581.94
2018-09-22T23:55:17.621Z,97578.83
